createdAt,value
2023-04-23T00:01:43.772Z,91.80
2023-04-23T00:04:13.559Z,92.00
2023-04-23T00:06:50.317Z,92.20
2023-04-23T00:09:19.891Z,92.20
2023-04-23T00:11:54.251Z,92.00
2023-04-23T00:14:25.482Z,91.90
2023-04-23T00:16:54.197Z,91.70
2023-04-23T00:19:25.214Z,91.60
2023-04-23T00:21:58.858Z,91.50
2023-04-23T00:24:28.077Z,91.50
2023-04-23T00:27:01.450Z,91.70
2023-04-23T00:29:29.361Z,91.70
2023-04-23T00:32:04.801Z,91.80
2023-04-23T00:34:32.963Z,91.80
2023-04-23T00:37:07.897Z,91.80
2023-04-23T00:39:39.394Z,91.70
2023-04-23T00:42:12.296Z,91.80
2023-04-23T00:44:49.733Z,92.00
2023-04-23T00:47:20.796Z,92.10
2023-04-23T00:49:53.173Z,92.20
2023-04-23T00:52:35.850Z,92.10
2023-04-23T00:55:09.061Z,92.10
2023-04-23T00:57:38.373Z,92.10
2023-04-23T01:00:09.757Z,92.40
2023-04-23T01:02:39.026Z,92.50
2023-04-23T01:05:10.092Z,92.30
2023-04-23T01:07:43.925Z,92.50
2023-04-23T01:10:13.824Z,92.70
2023-04-23T01:12:44.987Z,92.80
2023-04-23T01:15:16.015Z,92.80
2023-04-23T01:17:47.309Z,92.50
2023-04-23T01:20:15.290Z,92.80
2023-04-23T01:22:44.535Z,92.90
2023-04-23T01:25:12.419Z,91.80
2023-04-23T01:27:40.892Z,92.60
2023-04-23T01:30:13.039Z,93.10
2023-04-23T01:32:41.351Z,93.10
2023-04-23T01:35:09.906Z,93.10
2023-04-23T01:37:40.149Z,93.10
2023-04-23T01:40:10.926Z,93.00
2023-04-23T01:42:59.017Z,93.20
2023-04-23T01:45:27.023Z,93.20
2023-04-23T01:47:58.119Z,93.30
2023-04-23T01:50:27.753Z,93.20
2023-04-23T01:52:58.792Z,93.00
2023-04-23T01:55:28.223Z,92.80
2023-04-23T01:57:56.654Z,93.00
2023-04-23T02:00:27.818Z,92.70
2023-04-23T02:03:03.370Z,92.70
2023-04-23T02:05:31.607Z,92.80
2023-04-23T02:07:59.494Z,93.00
2023-04-23T02:10:29.576Z,93.10
2023-04-23T02:13:04.255Z,93.00
2023-04-23T02:15:32.531Z,93.00
2023-04-23T02:18:02.467Z,93.00
2023-04-23T02:20:30.396Z,93.20
2023-04-23T02:22:58.303Z,93.30
2023-04-23T02:25:26.430Z,93.40
2023-04-23T02:27:57.335Z,93.40
2023-04-23T02:30:28.806Z,93.60
2023-04-23T02:33:03.657Z,93.70
2023-04-23T02:35:34.501Z,93.70
2023-04-23T02:38:08.168Z,93.50
2023-04-23T02:40:36.105Z,93.50
2023-04-23T02:43:13.034Z,93.70
2023-04-23T02:45:40.907Z,93.70
2023-04-23T02:48:14.770Z,93.80
2023-04-23T02:50:42.609Z,93.80
2023-04-23T02:53:15.870Z,93.80
2023-04-23T02:55:43.730Z,93.80
2023-04-23T02:58:13.464Z,93.90
2023-04-23T03:00:41.340Z,94.00
2023-04-23T03:03:15.356Z,93.90
2023-04-23T03:05:49.206Z,93.90
2023-04-23T03:08:26.250Z,94.00
2023-04-23T03:10:54.144Z,94.10
2023-04-23T03:13:23.379Z,94.00
2023-04-23T03:15:52.086Z,93.90
2023-04-23T03:18:23.324Z,93.80
2023-04-23T03:20:51.201Z,93.70
2023-04-23T03:23:19.121Z,93.20
2023-04-23T03:25:47.050Z,93.30
2023-04-23T03:28:27.376Z,93.40
2023-04-23T03:31:09.184Z,93.80
2023-04-23T03:33:37.054Z,93.20
2023-04-23T03:36:11.045Z,93.10
2023-04-23T03:38:38.852Z,93.90
2023-04-23T03:41:12.819Z,94.00
2023-04-23T03:43:40.828Z,93.80
2023-04-23T03:46:13.247Z,93.70
2023-04-23T03:48:41.537Z,94.00
2023-04-23T03:51:10.008Z,94.10
2023-04-23T03:53:37.884Z,94.20
2023-04-23T03:56:06.074Z,94.30
2023-04-23T03:58:33.947Z,93.80
2023-04-23T04:01:08.890Z,93.50
2023-04-23T04:03:40.723Z,94.00
2023-04-23T04:06:12.156Z,94.00
2023-04-23T04:08:49.114Z,93.70
2023-04-23T04:11:17.429Z,93.90
2023-04-23T04:14:00.050Z,94.20
2023-04-23T04:16:27.990Z,94.50
2023-04-23T04:18:57.197Z,94.60
2023-04-23T04:21:25.101Z,94.50
2023-04-23T04:24:02.765Z,94.50
2023-04-23T04:26:32.430Z,94.50
2023-04-23T04:29:06.608Z,94.60
2023-04-23T04:31:35.834Z,94.60
2023-04-23T04:34:09.042Z,94.30
2023-04-23T04:36:43.098Z,93.80
2023-04-23T04:39:11.094Z,94.40
2023-04-23T04:41:44.989Z,94.70
2023-04-23T04:44:14.265Z,94.30
2023-04-23T04:46:42.846Z,94.40
2023-04-23T04:49:19.723Z,94.40
2023-04-23T04:51:47.721Z,94.70
2023-04-23T04:54:29.467Z,94.90
2023-04-23T04:56:57.612Z,94.80
2023-04-23T04:59:25.491Z,95.00
2023-04-23T05:01:53.418Z,95.00
2023-04-23T05:04:22.739Z,94.70
2023-04-23T05:06:53.762Z,94.50
2023-04-23T05:09:21.634Z,94.20
2023-04-23T05:11:49.821Z,94.60
2023-04-23T05:14:20.727Z,93.80
2023-04-23T05:16:48.700Z,94.20
2023-04-23T05:19:19.610Z,94.90
2023-04-23T05:21:54.365Z,95.10
2023-04-23T05:24:22.254Z,94.50
2023-04-23T05:26:52.926Z,95.00
2023-04-23T05:29:20.787Z,94.60
2023-04-23T05:31:51.864Z,93.20
2023-04-23T05:34:19.767Z,94.40
2023-04-23T05:36:47.607Z,94.00
2023-04-23T05:39:21.317Z,95.10
2023-04-23T05:41:49.143Z,95.50
2023-04-23T05:44:19.756Z,95.20
2023-04-23T05:46:47.606Z,95.40
2023-04-23T05:49:15.667Z,95.20
2023-04-23T05:51:44.745Z,95.30
2023-04-23T05:54:21.209Z,95.20
2023-04-23T05:56:49.045Z,95.10
2023-04-23T05:59:17.072Z,94.60
2023-04-23T06:01:44.996Z,94.70
2023-04-23T06:04:13.004Z,94.70
2023-04-23T06:06:40.996Z,94.40
2023-04-23T06:09:11.083Z,94.30
2023-04-23T06:11:40.399Z,94.20
2023-04-23T06:14:12.063Z,94.20
2023-04-23T06:16:42.117Z,94.00
2023-04-23T06:19:10.175Z,93.80
2023-04-23T06:21:41.091Z,93.60
2023-04-23T06:24:11.959Z,93.70
2023-04-23T06:26:43.977Z,93.60
2023-04-23T06:29:11.859Z,93.40
2023-04-23T06:31:41.586Z,93.20
2023-04-23T06:34:09.567Z,93.00
2023-04-23T06:36:37.441Z,92.90
2023-04-23T06:39:05.388Z,92.80
2023-04-23T06:41:36.318Z,92.70
2023-04-23T06:44:06.093Z,92.70
2023-04-23T06:46:36.966Z,92.60
2023-04-23T06:49:04.859Z,92.60
2023-04-23T06:51:33.009Z,92.50
2023-04-23T06:54:00.854Z,92.50
2023-04-23T06:56:28.781Z,92.70
2023-04-23T06:58:59.661Z,92.80
2023-04-23T07:01:29.070Z,93.10
2023-04-23T07:03:57.209Z,93.30
2023-04-23T07:06:25.563Z,93.40
2023-04-23T07:08:55.589Z,93.70
2023-04-23T07:11:27.080Z,94.50
2023-04-23T07:13:54.974Z,94.50
2023-04-23T07:16:23.821Z,94.30
2023-04-23T07:18:59.050Z,94.00
2023-04-23T07:21:27.568Z,93.70
2023-04-23T07:23:56.760Z,93.50
2023-04-23T07:26:25.642Z,93.40
2023-04-23T07:28:56.600Z,93.30
2023-04-23T07:31:24.499Z,93.20
2023-04-23T07:33:52.596Z,93.10
2023-04-23T07:36:28.216Z,93.10
2023-04-23T07:38:56.157Z,93.00
2023-04-23T07:41:24.038Z,92.90
2023-04-23T07:43:51.931Z,92.90
2023-04-23T07:46:20.109Z,92.90
2023-04-23T07:48:51.978Z,92.90
2023-04-23T07:51:22.486Z,92.90
2023-04-23T07:53:54.286Z,92.90
2023-04-23T07:56:24.419Z,93.20
2023-04-23T07:58:58.199Z,93.00
2023-04-23T08:01:30.076Z,92.90
2023-04-23T08:04:00.752Z,92.90
2023-04-23T08:06:29.894Z,92.90
2023-04-23T08:09:06.250Z,92.90
2023-04-23T08:11:34.104Z,92.70
2023-04-23T08:14:02.471Z,92.60
2023-04-23T08:16:31.225Z,92.60
2023-04-23T08:19:05.575Z,92.40
2023-04-23T08:21:34.499Z,92.40
2023-04-23T08:24:04.285Z,92.40
2023-04-23T08:26:38.337Z,92.50
2023-04-23T08:29:24.223Z,92.30
2023-04-23T08:31:55.063Z,92.30
2023-04-23T08:34:22.937Z,92.30
2023-04-23T08:36:59.728Z,92.30
2023-04-23T08:39:30.538Z,92.20
2023-04-23T08:42:16.627Z,92.20
2023-04-23T08:44:47.587Z,92.10
2023-04-23T08:47:19.179Z,92.00
2023-04-23T08:49:55.374Z,91.90
2023-04-23T08:52:29.850Z,91.80
2023-04-23T08:55:03.342Z,92.00
2023-04-23T08:57:36.392Z,92.00
2023-04-23T09:00:15.591Z,92.00
2023-04-23T09:02:48.138Z,91.80
2023-04-23T09:05:16.627Z,91.90
2023-04-23T09:07:45.036Z,91.80
2023-04-23T09:10:20.298Z,91.80
2023-04-23T09:12:48.344Z,91.70
2023-04-23T09:15:16.285Z,91.70
2023-04-23T09:17:46.230Z,91.40
2023-04-23T09:20:15.701Z,91.20
2023-04-23T09:22:48.129Z,91.10
2023-04-23T09:25:18.409Z,91.10
2023-04-23T09:27:48.699Z,90.90
2023-04-23T09:30:17.483Z,91.00
2023-04-23T09:32:46.921Z,91.00
2023-04-23T09:35:16.470Z,91.00
2023-04-23T09:37:48.246Z,91.10
2023-04-23T09:40:17.700Z,91.10
2023-04-23T09:42:53.043Z,91.30
2023-04-23T09:45:21.087Z,91.00
2023-04-23T09:48:00.167Z,91.00
2023-04-23T09:50:34.052Z,91.10
2023-04-23T09:53:02.060Z,91.00
2023-04-23T09:55:35.165Z,90.90
2023-04-23T09:58:05.567Z,90.80
2023-04-23T10:00:38.864Z,90.70
2023-04-23T10:03:11.009Z,90.50
2023-04-23T10:05:59.743Z,90.50
2023-04-23T10:08:37.376Z,90.50
2023-04-23T10:11:20.050Z,90.40
2023-04-23T10:13:56.671Z,90.10
2023-04-23T10:16:30.521Z,90.20
2023-04-23T10:19:11.178Z,90.10
2023-04-23T10:21:54.721Z,90.10
2023-04-23T10:24:28.328Z,89.50
2023-04-23T10:27:02.559Z,88.70
2023-04-23T10:29:33.149Z,89.10
2023-04-23T10:32:03.360Z,89.00
2023-04-23T10:34:33.216Z,88.40
2023-04-23T10:37:04.327Z,88.40
2023-04-23T10:39:35.141Z,87.60
2023-04-23T10:42:06.161Z,87.90
2023-04-23T10:47:15.033Z,87.60
2023-04-23T10:49:49.620Z,87.10
2023-04-23T10:52:21.652Z,87.80
2023-04-23T10:54:57.910Z,87.80
2023-04-23T10:57:32.678Z,88.00
2023-04-23T11:00:04.537Z,88.30
2023-04-23T11:02:46.949Z,88.60
2023-04-23T11:05:22.494Z,88.20
2023-04-23T11:08:18.924Z,87.90
2023-04-23T11:10:57.147Z,87.60
2023-04-23T11:13:25.956Z,87.80
2023-04-23T11:16:15.378Z,89.60
2023-04-23T11:19:02.958Z,89.10
2023-04-23T11:22:02.505Z,87.30
2023-04-23T11:24:32.061Z,85.50
2023-04-23T11:27:01.146Z,85.80
2023-04-23T11:29:29.798Z,86.40
2023-04-23T11:32:03.186Z,86.30
2023-04-23T11:34:31.881Z,86.20
2023-04-23T11:37:04.899Z,85.50
2023-04-23T11:39:35.695Z,85.10
2023-04-23T11:42:05.834Z,84.70
2023-04-23T11:44:33.732Z,84.40
2023-04-23T11:47:03.435Z,84.30
2023-04-23T11:49:31.411Z,84.00
2023-04-23T11:52:02.311Z,83.90
2023-04-23T11:54:33.452Z,84.50
2023-04-23T11:57:01.623Z,84.60
2023-04-23T11:59:29.815Z,85.30
2023-04-23T12:01:58.987Z,85.20
2023-04-23T12:04:29.679Z,85.10
2023-04-23T12:06:59.168Z,85.00
2023-04-23T12:09:29.486Z,84.80
2023-04-23T12:11:58.348Z,84.30
2023-04-23T12:14:31.117Z,83.70
2023-04-23T12:17:00.110Z,83.20
2023-04-23T12:19:30.812Z,82.90
2023-04-23T12:22:00.739Z,82.00
2023-04-23T12:24:31.468Z,83.70
2023-04-23T12:27:03.110Z,83.20
2023-04-23T12:29:31.980Z,85.00
2023-04-23T12:32:01.236Z,84.30
2023-04-23T12:34:30.480Z,84.60
2023-04-23T12:37:01.128Z,82.80
2023-04-23T12:39:31.193Z,83.50
2023-04-23T12:42:02.442Z,83.90
2023-04-23T12:44:30.667Z,85.10
2023-04-23T12:47:07.348Z,82.70
2023-04-23T12:49:39.705Z,85.10
2023-04-23T12:52:08.632Z,85.00
2023-04-23T12:54:38.331Z,84.50
2023-04-23T12:57:07.737Z,81.50
2023-04-23T12:59:35.677Z,84.90
2023-04-23T13:02:10.786Z,86.00
2023-04-23T13:04:40.271Z,85.00
2023-04-23T13:07:09.457Z,82.80
2023-04-23T13:09:37.390Z,86.10
2023-04-23T13:12:05.498Z,86.10
2023-04-23T13:14:36.437Z,85.70
2023-04-23T13:17:08.140Z,81.40
2023-04-23T13:19:40.480Z,84.10
2023-04-23T13:22:08.912Z,80.30
2023-04-23T13:24:36.791Z,78.80
2023-04-23T13:27:04.862Z,83.80
2023-04-23T13:29:33.976Z,83.30
2023-04-23T13:32:01.954Z,80.70
2023-04-23T13:34:30.778Z,80.00
2023-04-23T13:37:00.317Z,82.10
2023-04-23T13:39:28.187Z,80.30
2023-04-23T13:42:08.949Z,78.90
2023-04-23T13:44:37.603Z,74.90
2023-04-23T13:47:05.592Z,81.30
2023-04-23T13:49:33.750Z,79.90
2023-04-23T13:52:06.802Z,79.40
2023-04-23T13:54:38.172Z,78.70
2023-04-23T13:57:09.045Z,79.40
2023-04-23T13:59:40.239Z,77.60
2023-04-23T14:02:08.329Z,79.60
2023-04-23T14:04:39.665Z,79.00
2023-04-23T14:07:11.507Z,79.00
2023-04-23T14:09:39.709Z,78.80
2023-04-23T14:12:07.993Z,78.50
2023-04-23T14:14:35.998Z,77.50
2023-04-23T14:17:03.909Z,77.40
2023-04-23T14:19:34.505Z,77.20
2023-04-23T14:22:06.149Z,73.90
2023-04-23T14:24:41.283Z,77.00
2023-04-23T14:27:15.225Z,77.30
2023-04-23T14:29:47.384Z,75.90
2023-04-23T14:32:15.298Z,75.60
2023-04-23T14:34:43.260Z,74.90
2023-04-23T14:37:13.328Z,74.80
2023-04-23T14:39:42.841Z,73.80
2023-04-23T14:42:11.056Z,74.30
2023-04-23T14:44:39.002Z,73.20
2023-04-23T14:47:08.105Z,73.30
2023-04-23T14:49:36.113Z,73.30
2023-04-23T14:52:04.459Z,72.50
2023-04-23T14:54:32.329Z,73.00
2023-04-23T14:57:07.401Z,72.80
2023-04-23T14:59:41.512Z,73.10
2023-04-23T15:02:12.040Z,74.40
2023-04-23T15:04:40.221Z,74.80
2023-04-23T15:07:11.152Z,75.10
2023-04-23T15:09:39.106Z,75.90
2023-04-23T15:12:45.159Z,76.60
2023-04-23T15:15:30.561Z,76.50
2023-04-23T15:18:05.870Z,75.00
2023-04-23T15:20:33.771Z,77.00
2023-04-23T15:23:01.688Z,77.20
2023-04-23T15:25:33.037Z,77.60
2023-04-23T15:28:05.663Z,77.40
2023-04-23T15:30:33.530Z,76.30
2023-04-23T15:33:07.227Z,77.40
2023-04-23T15:35:35.102Z,77.30
2023-04-23T15:38:03.029Z,71.30
2023-04-23T15:40:41.907Z,74.50
2023-04-23T15:43:14.639Z,73.30
2023-04-23T15:45:42.697Z,73.30
2023-04-23T15:48:10.869Z,73.30
2023-04-23T15:50:38.810Z,74.50
2023-04-23T15:53:06.695Z,75.30
2023-04-23T15:55:34.904Z,77.30
2023-04-23T15:58:05.639Z,77.10
2023-04-23T16:00:37.534Z,77.60
2023-04-23T16:03:06.571Z,77.80
2023-04-23T16:05:35.931Z,77.40
2023-04-23T16:08:04.058Z,77.40
2023-04-23T16:10:34.351Z,77.30
2023-04-23T16:13:03.200Z,76.20
2023-04-23T16:15:31.117Z,77.80
2023-04-23T16:18:00.805Z,77.90
2023-04-23T16:20:29.308Z,78.20
2023-04-23T16:23:00.102Z,78.10
2023-04-23T16:25:28.060Z,77.80
2023-04-23T16:27:57.572Z,76.40
2023-04-23T16:30:28.336Z,78.60
2023-04-23T16:33:00.350Z,78.30
2023-04-23T16:35:28.504Z,78.50
2023-04-23T16:37:56.453Z,78.20
2023-04-23T16:40:24.330Z,78.10
2023-04-23T16:42:52.213Z,78.20
2023-04-23T16:45:23.693Z,78.10
2023-04-23T16:47:54.481Z,78.00
2023-04-23T16:50:29.481Z,77.80
2023-04-23T16:52:57.841Z,77.90
2023-04-23T16:55:38.939Z,78.10
2023-04-23T16:58:10.111Z,78.20
2023-04-23T17:00:40.914Z,78.30
2023-04-23T17:03:15.878Z,78.50
2023-04-23T17:05:56.406Z,78.40
2023-04-23T17:08:28.589Z,78.50
2023-04-23T17:10:59.684Z,78.30
2023-04-23T17:13:27.548Z,78.50
2023-04-23T17:16:04.388Z,78.60
2023-04-23T17:18:35.276Z,78.90
2023-04-23T17:21:04.676Z,79.20
2023-04-23T17:23:32.560Z,79.20
2023-04-23T17:26:00.507Z,79.50
2023-04-23T17:28:28.438Z,79.40
2023-04-23T17:30:56.398Z,79.60
2023-04-23T17:33:25.025Z,79.80
2023-04-23T17:35:55.158Z,80.00
2023-04-23T17:38:28.429Z,80.30
2023-04-23T17:40:56.667Z,79.90
2023-04-23T17:43:24.548Z,79.60
2023-04-23T17:45:52.527Z,79.40
2023-04-23T17:48:22.966Z,79.60
2023-04-23T17:50:51.549Z,79.80
2023-04-23T17:53:19.548Z,80.10
2023-04-23T17:56:10.074Z,80.40
2023-04-23T17:58:40.110Z,81.20
2023-04-23T18:01:09.226Z,82.50
2023-04-23T18:03:40.087Z,82.50
2023-04-23T18:06:20.535Z,82.60
2023-04-23T18:08:48.427Z,82.90
2023-04-23T18:11:21.381Z,83.10
2023-04-23T18:13:53.482Z,83.50
2023-04-23T18:16:21.455Z,84.60
2023-04-23T18:18:50.144Z,86.60
2023-04-23T18:21:22.566Z,88.00
2023-04-23T18:23:50.451Z,88.50
2023-04-23T18:26:22.553Z,89.10
2023-04-23T18:28:50.510Z,90.00
2023-04-23T18:31:21.559Z,88.60
2023-04-23T18:34:02.063Z,89.00
2023-04-23T18:36:33.060Z,89.70
2023-04-23T18:39:07.373Z,90.20
2023-04-23T18:41:39.592Z,90.40
2023-04-23T18:44:12.940Z,90.20
2023-04-23T18:46:47.207Z,89.50
2023-04-23T18:49:55.354Z,89.00
2023-04-23T18:52:25.666Z,89.50
2023-04-23T18:54:53.559Z,90.40
2023-04-23T18:57:25.318Z,90.70
2023-04-23T18:59:56.404Z,91.30
2023-04-23T19:02:35.207Z,91.80
2023-04-23T19:05:08.351Z,91.90
2023-04-23T19:07:37.230Z,91.80
2023-04-23T19:10:05.553Z,91.80
2023-04-23T19:12:45.357Z,91.80
2023-04-23T19:15:16.374Z,91.80
2023-04-23T19:17:47.254Z,91.90
2023-04-23T19:20:15.622Z,92.90
2023-04-23T19:22:43.762Z,92.40
2023-04-23T19:25:11.822Z,92.40
2023-04-23T19:27:43.361Z,91.60
2023-04-23T19:30:17.189Z,91.60
2023-04-23T19:32:48.246Z,92.00
2023-04-23T19:35:19.339Z,92.00
2023-04-23T19:37:47.468Z,91.40
2023-04-23T19:40:15.816Z,91.40
2023-04-23T19:42:45.421Z,91.00
2023-04-23T19:45:15.366Z,91.40
2023-04-23T19:47:46.365Z,91.20
2023-04-23T19:50:14.626Z,91.10
2023-04-23T19:52:48.449Z,91.00
2023-04-23T19:55:18.057Z,90.80
2023-04-23T19:57:52.577Z,90.70
2023-04-23T20:00:23.705Z,90.50
2023-04-23T20:02:52.752Z,90.60
2023-04-23T20:05:23.787Z,90.40
2023-04-23T20:07:52.497Z,90.30
2023-04-23T20:10:20.520Z,90.40
2023-04-23T20:12:49.730Z,90.00
2023-04-23T20:15:25.701Z,90.40
2023-04-23T20:17:56.267Z,90.40
2023-04-23T20:20:25.493Z,90.30
2023-04-23T20:22:58.387Z,90.10
2023-04-23T20:25:29.358Z,89.80
2023-04-23T20:27:58.874Z,90.00
2023-04-23T20:30:28.909Z,89.80
2023-04-23T20:33:03.161Z,88.90
2023-04-23T20:35:41.830Z,89.80
2023-04-23T20:38:09.794Z,89.30
2023-04-23T20:40:47.194Z,89.40
2023-04-23T20:43:17.212Z,89.60
2023-04-23T20:45:47.981Z,89.10
2023-04-23T20:48:25.929Z,88.70
2023-04-23T20:50:57.343Z,88.30
2023-04-23T20:53:30.301Z,88.30
2023-04-23T20:55:58.432Z,88.10
2023-04-23T20:58:34.909Z,88.00
2023-04-23T21:01:14.454Z,88.10
2023-04-23T21:04:00.088Z,88.00
2023-04-23T21:06:34.114Z,87.60
2023-04-23T21:09:01.975Z,88.20
2023-04-23T21:11:36.137Z,88.20
2023-04-23T21:14:08.552Z,88.90
2023-04-23T21:16:36.790Z,88.10
2023-04-23T21:19:07.788Z,88.20
2023-04-23T21:21:35.638Z,88.30
2023-04-23T21:24:03.633Z,88.00
2023-04-23T21:26:37.672Z,88.10
2023-04-23T21:29:06.922Z,87.60
2023-04-23T21:31:54.835Z,87.40
2023-04-23T21:34:29.507Z,87.50
2023-04-23T21:37:00.525Z,87.50
2023-04-23T21:39:36.713Z,87.60
2023-04-23T21:42:10.942Z,87.90
2023-04-23T21:44:40.711Z,87.70
2023-04-23T21:47:11.526Z,87.90
2023-04-23T21:49:39.631Z,88.00
2023-04-23T21:52:08.885Z,87.80
2023-04-23T21:54:36.760Z,87.10
2023-04-23T21:57:04.804Z,87.90
2023-04-23T21:59:34.915Z,87.30
2023-04-23T22:02:06.788Z,87.80
2023-04-23T22:04:42.108Z,87.70
2023-04-23T22:07:13.501Z,87.70
2023-04-23T22:09:47.394Z,87.50
2023-04-23T22:12:17.451Z,87.30
2023-04-23T22:14:45.339Z,87.30
2023-04-23T22:17:14.680Z,87.60
2023-04-23T22:19:42.896Z,87.90
2023-04-23T22:22:13.790Z,87.50
2023-04-23T22:24:56.087Z,87.90
2023-04-23T22:27:24.292Z,87.90
2023-04-23T22:29:59.841Z,87.40
2023-04-23T22:32:32.306Z,87.00
2023-04-23T22:35:07.291Z,87.00
2023-04-23T22:37:35.360Z,87.40
2023-04-23T22:40:10.982Z,87.30
2023-04-23T22:42:45.849Z,86.60
2023-04-23T22:45:13.843Z,87.30
2023-04-23T22:47:45.329Z,87.10
2023-04-23T22:50:16.352Z,87.10
2023-04-23T22:52:50.127Z,87.50
2023-04-23T22:55:18.125Z,87.40
2023-04-23T22:57:46.015Z,87.50
2023-04-23T23:00:15.095Z,87.50
2023-04-23T23:02:50.218Z,87.40
2023-04-23T23:05:23.026Z,87.50
2023-04-23T23:07:51.792Z,87.50
2023-04-23T23:10:21.530Z,87.50
2023-04-23T23:12:50.719Z,87.10
2023-04-23T23:15:27.900Z,87.30
2023-04-23T23:17:57.597Z,87.60
2023-04-23T23:20:26.350Z,87.40
2023-04-23T23:23:03.270Z,87.80
2023-04-23T23:25:46.166Z,87.60
2023-04-23T23:28:14.361Z,87.40
2023-04-23T23:30:42.719Z,87.30
2023-04-23T23:33:11.936Z,87.50
2023-04-23T23:35:45.751Z,87.70
2023-04-23T23:38:16.788Z,86.30
2023-04-23T23:40:44.701Z,87.00
2023-04-23T23:43:18.736Z,87.40
2023-04-23T23:45:46.838Z,87.20
2023-04-23T23:48:19.285Z,87.70
2023-04-23T23:50:47.238Z,87.40
2023-04-23T23:53:15.264Z,87.10
2023-04-23T23:55:45.363Z,87.10
2023-04-23T23:58:15.514Z,87.30
